Terminal Aerodrome Forecast
Issued by NWS

Home | Current Version | Previous Version | Text Only | Print | Product List | Glossary On
Versions: 1 2 3 4 5 6 7 8 9 10 11 12 13 14 15 16 17
000
FTUS43 KAPX 202300
TAFTVC
TAF
KTVC 202320Z 2100/2124 25006KT P6SM VCSH SCT025 OVC040
      TEMPO 2100/2104 4SM SHRA BR BKN025
     FM210400 35004KT P6SM VCSH BKN015 OVC030
     FM211000 35006KT 5SM SHRA OVC012
     FM211400 35012G21KT 6SM -SHRA OVC022=

USA.gov is the U.S. government's official web portal to all federal, state and local government web resources and services.